createdAt,value
2023-05-22T00:01:51.953Z,6.05
2023-05-22T00:04:21.723Z,5.72
2023-05-22T00:06:49.111Z,6.07
2023-05-22T00:09:15.883Z,5.90
2023-05-22T00:11:43.181Z,6.35
2023-05-22T00:14:09.935Z,5.75
2023-05-22T00:16:36.708Z,6.45
2023-05-22T00:19:03.962Z,5.80
2023-05-22T00:21:34.738Z,8.13
2023-05-22T00:24:02.198Z,6.43
2023-05-22T00:26:28.968Z,6.03
2023-05-22T00:28:55.872Z,5.43
2023-05-22T00:31:23.607Z,5.97
2023-05-22T00:33:50.621Z,5.90
2023-05-22T00:36:18.794Z,6.57
2023-05-22T00:38:46.336Z,6.07
2023-05-22T00:41:13.465Z,5.88
2023-05-22T00:43:40.327Z,5.55
2023-05-22T00:46:10.010Z,5.63
2023-05-22T00:48:37.177Z,8.68
2023-05-22T00:51:04.788Z,5.72
2023-05-22T00:53:31.783Z,5.85
2023-05-22T00:55:59.554Z,6.00
2023-05-22T00:58:27.663Z,6.60
2023-05-22T01:00:55.559Z,6.10
2023-05-22T01:03:27.061Z,5.38
2023-05-22T01:05:55.724Z,5.72
2023-05-22T01:08:23.029Z,5.93
2023-05-22T01:11:10.489Z,5.50
2023-05-22T01:13:59.091Z,7.20
2023-05-22T01:16:32.433Z,6.43
2023-05-22T01:19:11.862Z,5.97
2023-05-22T01:22:13.869Z,5.50
2023-05-22T01:25:21.185Z,5.63
2023-05-22T01:28:24.556Z,6.95
2023-05-22T01:31:02.713Z,5.63
2023-05-22T01:33:36.144Z,6.13
2023-05-22T01:36:06.742Z,5.57
2023-05-22T01:38:34.501Z,6.10
2023-05-22T01:41:01.957Z,5.85
2023-05-22T01:43:28.663Z,5.30
2023-05-22T01:45:55.410Z,6.00
2023-05-22T01:48:22.185Z,5.75
2023-05-22T01:50:53.350Z,6.53
2023-05-22T01:53:30.080Z,5.93
2023-05-22T01:56:06.540Z,6.20
2023-05-22T01:58:52.831Z,5.20
2023-05-22T02:01:21.735Z,6.10
2023-05-22T02:03:56.254Z,6.35
2023-05-22T02:06:25.769Z,6.88
2023-05-22T02:08:54.150Z,6.25
2023-05-22T02:11:26.876Z,5.15
2023-05-22T02:13:53.727Z,5.65
2023-05-22T02:16:22.202Z,5.40
2023-05-22T02:18:49.080Z,6.30
2023-05-22T02:21:15.882Z,6.20
2023-05-22T02:23:42.949Z,7.13
2023-05-22T02:26:09.953Z,5.97
2023-05-22T02:28:36.731Z,6.82
2023-05-22T02:31:03.783Z,5.70
2023-05-22T02:33:30.925Z,5.65
2023-05-22T02:35:57.946Z,5.72
2023-05-22T02:38:24.909Z,6.05
2023-05-22T02:40:52.111Z,6.55
2023-05-22T02:43:19.088Z,5.82
2023-05-22T02:45:46.435Z,7.63
2023-05-22T02:48:13.248Z,7.03
2023-05-22T02:50:40.496Z,5.13
2023-05-22T02:53:08.415Z,5.55
2023-05-22T02:55:35.266Z,5.65
2023-05-22T02:58:03.043Z,6.95
2023-05-22T03:00:29.785Z,7.03
2023-05-22T03:02:57.050Z,5.60
2023-05-22T03:05:23.783Z,5.38
2023-05-22T03:07:52.808Z,5.47
2023-05-22T03:10:19.602Z,5.80
2023-05-22T03:12:46.325Z,5.97
2023-05-22T03:15:13.569Z,7.28
2023-05-22T03:17:42.280Z,5.88
2023-05-22T03:20:09.572Z,6.13
2023-05-22T03:22:36.837Z,5.97
2023-05-22T03:25:06.285Z,5.35
2023-05-22T03:27:32.945Z,5.88
2023-05-22T03:30:01.107Z,5.72
2023-05-22T03:32:28.616Z,6.15
2023-05-22T03:34:55.804Z,5.53
2023-05-22T03:37:22.561Z,5.60
2023-05-22T03:39:49.282Z,6.88
2023-05-22T03:42:21.844Z,6.25
2023-05-22T03:44:50.094Z,5.93
2023-05-22T03:47:18.174Z,5.88
2023-05-22T03:49:46.203Z,6.07
2023-05-22T03:52:12.949Z,5.65
2023-05-22T03:54:39.686Z,5.80
2023-05-22T03:57:07.046Z,6.13
2023-05-22T03:59:33.859Z,6.05
2023-05-22T04:02:01.206Z,6.20
2023-05-22T04:04:28.562Z,6.90
2023-05-22T04:06:58.261Z,5.78
2023-05-22T04:09:27.742Z,5.68
2023-05-22T04:11:57.610Z,6.32
2023-05-22T04:14:24.575Z,6.63
2023-05-22T04:16:51.455Z,5.80
2023-05-22T04:19:18.248Z,6.57
2023-05-22T04:21:45.198Z,5.75
2023-05-22T04:24:11.988Z,5.50
2023-05-22T04:26:41.748Z,5.50
2023-05-22T04:29:10.600Z,8.63
2023-05-22T04:31:37.715Z,6.53
2023-05-22T04:34:05.378Z,7.03
2023-05-22T04:36:32.006Z,6.45
2023-05-22T04:39:00.414Z,6.30
2023-05-22T04:41:27.970Z,5.77
2023-05-22T04:43:54.845Z,6.07
2023-05-22T04:46:21.793Z,9.23
2023-05-22T04:48:48.633Z,6.38
2023-05-22T04:51:15.967Z,8.00
2023-05-22T04:53:42.951Z,6.63
2023-05-22T04:56:09.844Z,9.57
2023-05-22T04:58:38.207Z,6.90
2023-05-22T05:01:06.278Z,7.20
2023-05-22T05:03:34.075Z,8.30
2023-05-22T05:06:00.960Z,7.35
2023-05-22T05:08:27.879Z,8.90
2023-05-22T05:10:54.718Z,6.97
2023-05-22T05:13:22.748Z,9.70
2023-05-22T05:15:49.705Z,10.23
2023-05-22T05:18:17.302Z,8.05
2023-05-22T05:20:44.016Z,7.55
2023-05-22T05:23:10.760Z,8.52
2023-05-22T05:25:40.613Z,9.40
2023-05-22T05:28:11.381Z,9.68
2023-05-22T05:30:40.609Z,8.27
2023-05-22T05:33:25.442Z,9.40
2023-05-22T05:36:03.839Z,10.10
2023-05-22T05:38:31.965Z,13.43
2023-05-22T05:40:59.508Z,9.85
2023-05-22T05:43:27.368Z,10.40
2023-05-22T05:45:58.559Z,7.55
2023-05-22T05:48:25.506Z,7.72
2023-05-22T05:50:52.525Z,8.05
2023-05-22T05:53:19.564Z,9.88
2023-05-22T05:55:52.977Z,9.48
2023-05-22T05:58:20.564Z,10.43
2023-05-22T06:01:13.204Z,8.35
2023-05-22T06:03:40.559Z,7.97
2023-05-22T06:06:12.763Z,11.85
2023-05-22T06:09:17.817Z,10.52
2023-05-22T06:12:22.752Z,10.20
2023-05-22T06:14:49.567Z,11.07
2023-05-22T06:17:16.720Z,11.05
2023-05-22T06:19:44.621Z,9.57
2023-05-22T06:22:12.496Z,8.57
2023-05-22T06:24:42.424Z,12.13
2023-05-22T06:27:14.786Z,11.52
2023-05-22T06:29:41.661Z,9.55
2023-05-22T06:32:08.818Z,10.43
2023-05-22T06:37:04.526Z,9.70
2023-05-22T06:39:37.288Z,10.02
2023-05-22T06:42:11.425Z,12.38
2023-05-22T06:44:57.069Z,11.00
2023-05-22T06:47:31.265Z,9.55
2023-05-22T06:49:58.157Z,9.77
2023-05-22T06:52:24.949Z,9.55
2023-05-22T06:54:52.361Z,12.25
2023-05-22T06:57:19.294Z,12.70
2023-05-22T06:59:46.226Z,10.43
2023-05-22T07:02:33.252Z,10.05
2023-05-22T07:05:20.235Z,11.45
2023-05-22T07:07:55.732Z,10.60
2023-05-22T07:10:22.453Z,12.52
2023-05-22T07:12:49.223Z,12.55
2023-05-22T07:15:16.441Z,12.05
2023-05-22T07:17:49.364Z,12.50
2023-05-22T07:20:17.739Z,12.27
2023-05-22T07:22:53.710Z,11.13
2023-05-22T07:25:20.663Z,14.18
2023-05-22T07:27:47.660Z,12.30
2023-05-22T07:30:14.734Z,13.25
2023-05-22T07:32:41.854Z,11.25
2023-05-22T07:35:10.759Z,12.32
2023-05-22T07:37:38.313Z,13.45
2023-05-22T07:40:09.829Z,14.02
2023-05-22T07:42:36.608Z,12.80
2023-05-22T07:45:04.690Z,13.32
2023-05-22T07:47:31.489Z,14.57
2023-05-22T07:49:59.186Z,13.45
2023-05-22T07:52:26.116Z,14.05
2023-05-22T07:54:53.179Z,14.05
2023-05-22T07:57:20.364Z,15.05
2023-05-22T07:59:47.571Z,14.65
2023-05-22T08:02:14.583Z,14.85
2023-05-22T08:04:41.644Z,14.65
2023-05-22T08:07:08.494Z,14.80
2023-05-22T08:09:35.349Z,15.32
2023-05-22T08:12:02.626Z,15.05
2023-05-22T08:14:30.642Z,15.60
2023-05-22T08:16:59.119Z,13.88
2023-05-22T08:19:26.310Z,17.00
2023-05-22T08:21:58.095Z,18.05
2023-05-22T08:24:30.463Z,14.25
2023-05-22T08:27:00.736Z,13.93
2023-05-22T08:29:29.229Z,15.68
2023-05-22T08:31:58.251Z,14.13
2023-05-22T08:34:25.731Z,16.65
2023-05-22T08:36:52.599Z,16.55
2023-05-22T08:39:19.445Z,14.63
2023-05-22T08:41:47.625Z,14.75
2023-05-22T08:44:14.557Z,16.23
2023-05-22T08:46:47.393Z,17.38
2023-05-22T08:49:16.186Z,14.10
2023-05-22T08:51:46.591Z,16.50
2023-05-22T08:54:15.570Z,16.85
2023-05-22T08:59:23.260Z,17.98
2023-05-22T09:01:52.279Z,16.27
2023-05-22T09:06:50.749Z,15.48
2023-05-22T09:09:18.005Z,19.00
2023-05-22T09:11:44.749Z,16.35
2023-05-22T09:14:11.970Z,15.95
2023-05-22T09:16:49.917Z,17.45
2023-05-22T09:19:16.757Z,18.13
2023-05-22T09:21:47.637Z,18.52
2023-05-22T09:24:14.429Z,19.88
2023-05-22T09:26:41.550Z,16.80
2023-05-22T09:29:08.635Z,17.35
2023-05-22T09:31:43.174Z,17.20
2023-05-22T09:34:14.244Z,20.98
2023-05-22T09:36:41.768Z,18.05
2023-05-22T09:39:09.542Z,16.55
2023-05-22T09:41:38.713Z,20.70
2023-05-22T09:44:15.538Z,18.13
2023-05-22T09:46:45.247Z,19.35
2023-05-22T09:49:15.755Z,17.83
2023-05-22T09:51:47.910Z,20.13
2023-05-22T09:54:16.383Z,18.25
2023-05-22T09:56:44.861Z,19.25
2023-05-22T09:59:13.925Z,18.02
2023-05-22T10:01:42.844Z,17.55
2023-05-22T10:04:13.197Z,16.90
2023-05-22T10:06:42.146Z,18.95
2023-05-22T10:09:18.877Z,16.70
2023-05-22T10:11:47.444Z,18.77
2023-05-22T10:14:15.058Z,19.63
2023-05-22T10:16:45.133Z,20.48
2023-05-22T10:19:13.236Z,19.02
2023-05-22T10:21:41.871Z,18.20
2023-05-22T10:24:09.584Z,19.50
2023-05-22T10:26:36.987Z,19.35
2023-05-22T10:29:12.628Z,20.25
2023-05-22T10:32:14.863Z,23.48
2023-05-22T10:35:07.338Z,22.40
2023-05-22T10:37:50.865Z,19.45
2023-05-22T10:40:33.323Z,20.55
2023-05-22T10:43:01.271Z,19.23
2023-05-22T10:45:29.315Z,20.65
2023-05-22T10:48:04.315Z,19.55
2023-05-22T10:50:31.595Z,19.77
2023-05-22T10:53:22.918Z,18.88
2023-05-22T10:55:54.536Z,20.15
2023-05-22T10:58:29.467Z,18.50
2023-05-22T11:01:18.744Z,20.73
2023-05-22T11:03:58.340Z,19.60
2023-05-22T11:06:35.845Z,21.23
2023-05-22T11:09:32.772Z,20.15
2023-05-22T11:12:22.509Z,19.08
2023-05-22T11:14:56.574Z,18.38
2023-05-22T11:17:31.521Z,20.10
2023-05-22T11:20:05.512Z,22.08
2023-05-22T11:22:43.074Z,20.42
2023-05-22T11:25:12.081Z,20.05
2023-05-22T11:30:08.982Z,19.70
2023-05-22T11:32:41.368Z,19.37
2023-05-22T11:35:08.627Z,20.95
2023-05-22T11:37:42.326Z,21.33
2023-05-22T11:40:09.944Z,20.23
2023-05-22T11:42:37.818Z,20.70
2023-05-22T11:45:05.225Z,19.92
2023-05-22T11:47:32.408Z,19.50
2023-05-22T11:50:02.992Z,19.48
2023-05-22T11:52:33.829Z,25.05
2023-05-22T11:55:01.190Z,20.98
2023-05-22T11:57:28.465Z,18.67
2023-05-22T11:59:55.277Z,20.58
2023-05-22T12:02:22.139Z,21.30
2023-05-22T12:04:54.547Z,19.77
2023-05-22T12:07:22.484Z,21.50
2023-05-22T12:09:49.422Z,20.35
2023-05-22T12:12:16.755Z,22.05
2023-05-22T12:14:47.197Z,21.25
2023-05-22T12:17:14.820Z,19.38
2023-05-22T12:19:42.232Z,21.58
2023-05-22T12:22:10.170Z,21.95
2023-05-22T12:24:46.977Z,19.58
2023-05-22T12:27:14.685Z,21.35
2023-05-22T12:29:42.707Z,20.73
2023-05-22T12:32:11.180Z,19.10
2023-05-22T12:34:46.269Z,22.70
2023-05-22T12:37:25.280Z,19.13
2023-05-22T12:39:56.935Z,17.95
2023-05-22T12:42:25.044Z,20.45
2023-05-22T12:44:56.388Z,19.85
2023-05-22T12:47:24.388Z,19.42
2023-05-22T12:49:51.361Z,20.02
2023-05-22T12:52:18.438Z,20.13
2023-05-22T12:54:45.274Z,19.45
2023-05-22T12:57:11.898Z,18.75
2023-05-22T12:59:38.691Z,19.38
2023-05-22T13:02:05.851Z,20.40
2023-05-22T13:04:33.068Z,18.77
2023-05-22T13:06:59.829Z,18.92
2023-05-22T13:09:26.710Z,20.15
2023-05-22T13:11:53.532Z,16.98
2023-05-22T13:14:21.555Z,19.87
2023-05-22T13:16:48.321Z,17.85
2023-05-22T13:19:15.164Z,16.00
2023-05-22T13:21:42.888Z,18.23
2023-05-22T13:24:09.670Z,18.98
2023-05-22T13:26:36.444Z,17.15
2023-05-22T13:29:03.372Z,16.70
2023-05-22T13:31:31.435Z,17.25
2023-05-22T13:33:59.152Z,14.80
2023-05-22T13:36:26.701Z,18.67
2023-05-22T13:38:53.763Z,17.10
2023-05-22T13:41:21.120Z,17.48
2023-05-22T13:43:47.791Z,19.17
2023-05-22T13:46:14.488Z,17.30
2023-05-22T13:48:41.112Z,16.70
2023-05-22T13:51:07.889Z,17.85
2023-05-22T13:53:35.385Z,16.50
2023-05-22T13:56:02.263Z,17.63
2023-05-22T13:58:28.983Z,17.02
2023-05-22T14:00:56.277Z,17.73
2023-05-22T14:03:23.127Z,18.13
2023-05-22T14:05:50.170Z,17.88
2023-05-22T14:08:16.992Z,45.42
2023-05-22T14:10:43.828Z,24.20
2023-05-22T14:13:10.702Z,27.58
2023-05-22T14:15:37.677Z,24.27
2023-05-22T14:18:04.642Z,31.83
2023-05-22T14:20:31.521Z,23.80
2023-05-22T14:22:58.634Z,26.58
2023-05-22T14:25:26.402Z,25.52
2023-05-22T14:27:53.233Z,22.23
2023-05-22T14:30:20.053Z,28.63
2023-05-22T14:32:47.172Z,24.63
2023-05-22T14:35:14.120Z,22.38
2023-05-22T14:37:41.052Z,28.33
2023-05-22T14:40:08.524Z,25.60
2023-05-22T14:42:36.281Z,19.73
2023-05-22T14:45:03.947Z,22.67
2023-05-22T14:47:30.707Z,24.00
2023-05-22T14:50:06.174Z,22.35
2023-05-22T14:52:44.153Z,22.75
2023-05-22T14:55:11.125Z,25.20
2023-05-22T14:57:37.941Z,21.83
2023-05-22T15:00:06.563Z,23.13
2023-05-22T15:02:33.436Z,23.52
2023-05-22T15:05:00.440Z,21.13
2023-05-22T15:07:39.594Z,22.98
2023-05-22T15:10:10.781Z,22.25
2023-05-22T15:12:37.614Z,22.30
2023-05-22T15:15:04.918Z,20.65
2023-05-22T15:17:31.790Z,19.08
2023-05-22T15:19:58.753Z,22.45
2023-05-22T15:22:25.415Z,24.17
2023-05-22T15:25:08.176Z,19.83
2023-05-22T15:27:35.620Z,22.50
2023-05-22T15:30:04.396Z,23.38
2023-05-22T15:32:34.553Z,17.73
2023-05-22T15:35:01.304Z,19.30
2023-05-22T15:37:32.352Z,20.58
2023-05-22T15:40:01.455Z,21.08
2023-05-22T15:44:55.303Z,17.45
2023-05-22T15:47:22.299Z,17.52
2023-05-22T15:49:49.066Z,20.50
2023-05-22T15:52:16.058Z,18.27
2023-05-22T15:54:42.825Z,21.77
2023-05-22T15:57:09.602Z,19.90
2023-05-22T15:59:36.336Z,20.33
2023-05-22T16:02:03.053Z,19.52
2023-05-22T16:04:29.921Z,17.23
2023-05-22T16:06:56.774Z,18.25
2023-05-22T16:09:23.508Z,19.67
2023-05-22T16:11:50.221Z,19.48
2023-05-22T16:14:16.905Z,18.00
2023-05-22T16:16:43.842Z,18.13
2023-05-22T16:19:11.628Z,16.27
2023-05-22T16:21:38.798Z,20.00
2023-05-22T16:24:07.169Z,17.38
2023-05-22T16:26:34.060Z,19.73
2023-05-22T16:29:00.853Z,15.05
2023-05-22T16:31:27.966Z,18.13
2023-05-22T16:33:54.669Z,16.42
2023-05-22T16:36:21.384Z,16.55
2023-05-22T16:38:48.101Z,15.23
2023-05-22T16:41:14.881Z,15.82
2023-05-22T16:43:41.655Z,16.33
2023-05-22T16:46:08.364Z,17.83
2023-05-22T16:48:35.396Z,16.80
2023-05-22T16:51:02.213Z,16.42
2023-05-22T16:53:29.157Z,17.25
2023-05-22T16:55:56.265Z,18.70
2023-05-22T16:58:23.075Z,18.20
2023-05-22T17:00:50.097Z,16.52
2023-05-22T17:03:17.245Z,16.48
2023-05-22T17:05:44.428Z,17.33
2023-05-22T17:08:11.399Z,16.98
2023-05-22T17:10:38.389Z,17.10
2023-05-22T17:13:05.714Z,17.92
2023-05-22T17:15:32.526Z,19.00
2023-05-22T17:17:59.350Z,18.10
2023-05-22T17:20:26.375Z,18.70
2023-05-22T17:22:53.104Z,15.15
2023-05-22T17:25:19.815Z,17.58
2023-05-22T17:27:46.572Z,16.90
2023-05-22T17:30:13.501Z,14.95
2023-05-22T17:32:40.291Z,16.75
2023-05-22T17:35:07.323Z,16.60
2023-05-22T17:37:34.358Z,15.88
2023-05-22T17:40:01.153Z,16.17
2023-05-22T17:42:27.894Z,19.67
2023-05-22T17:44:54.752Z,15.02
2023-05-22T17:47:21.650Z,13.82
2023-05-22T17:49:48.625Z,16.45
2023-05-22T17:52:15.538Z,17.02
2023-05-22T17:54:42.334Z,16.30
2023-05-22T17:57:09.270Z,16.05
2023-05-22T17:59:38.451Z,15.88
2023-05-22T18:02:07.527Z,15.77
2023-05-22T18:04:34.429Z,17.08
2023-05-22T18:07:01.522Z,15.95
2023-05-22T18:09:28.251Z,15.20
2023-05-22T18:11:55.123Z,15.50
2023-05-22T18:14:21.976Z,18.85
2023-05-22T18:16:48.823Z,17.40
2023-05-22T18:19:15.686Z,15.88
2023-05-22T18:21:43.270Z,14.95
2023-05-22T18:24:10.065Z,15.95
2023-05-22T18:26:36.864Z,15.13
2023-05-22T18:29:03.612Z,17.45
2023-05-22T18:31:30.740Z,18.52
2023-05-22T18:33:57.605Z,16.63
2023-05-22T18:36:24.521Z,16.55
2023-05-22T18:38:51.233Z,17.33
2023-05-22T18:41:17.898Z,18.35
2023-05-22T18:43:44.694Z,16.75
2023-05-22T18:46:11.405Z,18.45
2023-05-22T18:48:38.078Z,16.52
2023-05-22T18:51:04.891Z,16.48
2023-05-22T18:53:31.931Z,17.70
2023-05-22T18:55:58.778Z,16.40
2023-05-22T18:58:25.777Z,18.77
2023-05-22T19:00:55.453Z,16.13
2023-05-22T19:03:22.364Z,14.30
2023-05-22T19:05:49.088Z,16.00
2023-05-22T19:08:15.949Z,18.92
2023-05-22T19:10:42.765Z,18.45
2023-05-22T19:13:09.698Z,20.73
2023-05-22T19:15:37.671Z,19.58
2023-05-22T19:18:04.494Z,18.38
2023-05-22T19:20:31.386Z,19.65
2023-05-22T19:22:58.468Z,20.35
2023-05-22T19:25:25.388Z,17.38
2023-05-22T19:27:52.338Z,17.73
2023-05-22T19:30:19.818Z,16.77
2023-05-22T19:32:47.009Z,15.07
2023-05-22T19:35:13.754Z,15.48
2023-05-22T19:37:40.573Z,16.15
2023-05-22T19:40:09.736Z,17.20
2023-05-22T19:42:38.210Z,15.93
2023-05-22T19:45:05.825Z,16.80
2023-05-22T19:47:32.580Z,15.30
2023-05-22T19:49:59.272Z,15.30
2023-05-22T19:52:28.940Z,16.60
2023-05-22T19:54:55.866Z,17.48
2023-05-22T19:57:22.693Z,17.35
2023-05-22T19:59:50.292Z,17.65
2023-05-22T20:02:17.131Z,18.20
2023-05-22T20:04:43.883Z,17.17
2023-05-22T20:07:10.932Z,18.00
2023-05-22T20:09:37.834Z,16.05
2023-05-22T20:12:05.138Z,15.25
2023-05-22T20:14:32.223Z,18.27
2023-05-22T20:16:59.268Z,16.73
2023-05-22T20:19:27.526Z,15.32
2023-05-22T20:21:54.497Z,16.73
2023-05-22T20:24:21.349Z,17.30
2023-05-22T20:26:48.047Z,16.45
2023-05-22T20:29:14.909Z,15.77
2023-05-22T20:31:42.016Z,17.67
2023-05-22T20:34:11.811Z,16.63
2023-05-22T20:36:40.817Z,17.15
2023-05-22T20:41:34.248Z,17.45
2023-05-22T20:44:02.622Z,17.83
2023-05-22T20:46:29.448Z,17.63
2023-05-22T20:48:58.551Z,17.05
2023-05-22T20:51:32.545Z,17.75
2023-05-22T20:54:00.280Z,15.80
2023-05-22T20:56:27.692Z,18.48
2023-05-22T20:58:54.868Z,17.30
2023-05-22T21:01:22.578Z,17.40
2023-05-22T21:03:52.419Z,17.30
2023-05-22T21:06:20.030Z,17.63
2023-05-22T21:08:46.851Z,17.52
2023-05-22T21:11:13.646Z,18.38
2023-05-22T21:13:40.526Z,18.00
2023-05-22T21:16:07.296Z,15.45
2023-05-22T21:18:34.013Z,17.52
2023-05-22T21:21:01.034Z,18.42
2023-05-22T21:23:27.918Z,17.27
2023-05-22T21:25:54.838Z,17.65
2023-05-22T21:28:21.703Z,15.35
2023-05-22T21:30:48.459Z,15.55
2023-05-22T21:33:15.301Z,16.55
2023-05-22T21:35:41.989Z,15.82
2023-05-22T21:38:08.983Z,17.58
2023-05-22T21:40:35.610Z,15.88
2023-05-22T21:43:02.293Z,16.08
2023-05-22T21:45:29.251Z,14.95
2023-05-22T21:47:56.118Z,16.40
2023-05-22T21:50:22.896Z,16.05
2023-05-22T21:52:49.626Z,17.83
2023-05-22T21:55:16.427Z,16.95
2023-05-22T21:57:43.061Z,17.17
2023-05-22T22:00:10.273Z,18.58
2023-05-22T22:02:37.312Z,14.93
2023-05-22T22:05:04.925Z,17.58
2023-05-22T22:07:31.585Z,18.38
2023-05-22T22:09:59.187Z,18.65
2023-05-22T22:12:26.395Z,15.95
2023-05-22T22:14:53.228Z,16.73
2023-05-22T22:17:23.481Z,15.38
2023-05-22T22:19:50.533Z,19.55
2023-05-22T22:22:17.512Z,17.27
2023-05-22T22:24:45.391Z,21.10
2023-05-22T22:29:41.759Z,18.60
2023-05-22T22:32:08.743Z,17.30
2023-05-22T22:34:36.658Z,15.55
2023-05-22T22:37:03.526Z,18.65
2023-05-22T22:39:30.463Z,18.13
2023-05-22T22:42:04.059Z,17.52
2023-05-22T22:44:32.245Z,17.55
2023-05-22T22:46:59.272Z,18.43
2023-05-22T22:49:26.595Z,16.48
2023-05-22T22:51:54.453Z,17.27
2023-05-22T22:54:21.249Z,18.63
2023-05-22T22:56:49.760Z,16.33
2023-05-22T22:59:17.375Z,15.43
2023-05-22T23:01:44.209Z,17.08
2023-05-22T23:04:11.233Z,16.50
2023-05-22T23:06:38.199Z,15.27
2023-05-22T23:09:05.040Z,17.42
2023-05-22T23:11:37.396Z,13.82
2023-05-22T23:14:08.468Z,16.73
2023-05-22T23:16:42.576Z,17.02
2023-05-22T23:19:14.138Z,15.20
2023-05-22T23:21:41.483Z,15.80
2023-05-22T23:24:08.409Z,17.98
2023-05-22T23:26:35.188Z,16.50
2023-05-22T23:29:02.336Z,16.38
2023-05-22T23:31:30.800Z,15.32
2023-05-22T23:33:58.641Z,14.93
2023-05-22T23:36:25.894Z,14.98
2023-05-22T23:38:52.616Z,16.88
2023-05-22T23:41:19.331Z,17.13
2023-05-22T23:43:46.482Z,13.93
2023-05-22T23:46:14.237Z,15.60
2023-05-22T23:48:42.360Z,13.80
2023-05-22T23:51:10.090Z,14.25
2023-05-22T23:53:37.518Z,14.27
2023-05-22T23:56:04.861Z,12.65
2023-05-22T23:58:32.240Z,13.85
